createdAt,value
2018-03-17T00:01:10.581Z,94.00
2018-03-17T00:03:38.891Z,94.20
2018-03-17T00:06:07.968Z,94.30
2018-03-17T00:08:36.283Z,94.20
2018-03-17T00:11:05.363Z,94.00
2018-03-17T00:13:34.443Z,93.30
2018-03-17T00:16:02.739Z,93.30
2018-03-17T00:18:31.059Z,92.60
2018-03-17T00:20:59.363Z,93.10
2018-03-17T00:23:27.775Z,93.30
2018-03-17T00:25:56.092Z,92.90
2018-03-17T00:28:24.411Z,92.80
2018-03-17T00:30:52.725Z,92.30
2018-03-17T00:33:21.900Z,92.60
2018-03-17T00:35:50.207Z,92.60
2018-03-17T00:38:19.259Z,92.10
2018-03-17T00:40:47.571Z,92.20
2018-03-17T00:43:15.888Z,92.40
2018-03-17T00:45:44.196Z,91.70
2018-03-17T00:48:12.512Z,91.60
2018-03-17T00:50:40.839Z,91.80
2018-03-17T00:53:09.144Z,91.10
2018-03-17T00:55:37.437Z,91.70
2018-03-17T00:58:05.734Z,91.80
2018-03-17T01:00:34.058Z,91.40
2018-03-17T01:03:02.394Z,92.10
2018-03-17T01:05:30.699Z,92.20
2018-03-17T01:07:59.757Z,92.20
2018-03-17T01:10:28.065Z,92.20
2018-03-17T01:12:57.134Z,92.20
2018-03-17T01:15:25.450Z,92.20
2018-03-17T01:17:54.532Z,91.80
2018-03-17T01:20:22.823Z,91.80
2018-03-17T01:22:51.886Z,91.30
2018-03-17T01:25:20.229Z,91.30
2018-03-17T01:27:55.331Z,91.30
2018-03-17T01:30:23.858Z,91.80
2018-03-17T01:32:55.484Z,92.00
2018-03-17T01:35:26.634Z,92.00
2018-03-17T01:37:56.520Z,91.80
2018-03-17T01:40:25.728Z,92.00
2018-03-17T01:42:54.155Z,92.00
2018-03-17T01:45:22.469Z,91.70
2018-03-17T01:47:50.784Z,91.60
2018-03-17T01:50:19.903Z,90.90
2018-03-17T01:52:48.193Z,90.90
2018-03-17T01:55:16.493Z,90.60
2018-03-17T01:57:44.810Z,90.80
2018-03-17T02:00:13.138Z,90.80
2018-03-17T02:02:41.438Z,91.00
2018-03-17T02:05:09.749Z,90.40
2018-03-17T02:07:38.044Z,90.00
2018-03-17T02:10:07.188Z,90.30
2018-03-17T02:12:35.490Z,90.30
2018-03-17T02:15:03.795Z,90.20
2018-03-17T02:17:32.862Z,90.30
2018-03-17T02:20:01.335Z,90.10
2018-03-17T02:22:29.649Z,89.90
2018-03-17T02:24:57.951Z,89.70
2018-03-17T02:27:27.220Z,88.20
2018-03-17T02:29:55.509Z,88.20
2018-03-17T02:32:25.322Z,89.10
2018-03-17T02:34:54.385Z,89.70
2018-03-17T02:37:23.087Z,89.70
2018-03-17T02:39:51.610Z,90.20
2018-03-17T02:42:20.798Z,88.30
2018-03-17T02:44:49.125Z,88.20
2018-03-17T02:47:17.423Z,88.70
2018-03-17T02:49:46.458Z,89.10
2018-03-17T02:52:15.124Z,89.10
2018-03-17T02:54:44.663Z,88.50
2018-03-17T02:57:13.935Z,87.40
2018-03-17T02:59:45.939Z,87.30
2018-03-17T03:02:15.973Z,87.80
2018-03-17T03:04:45.293Z,88.40
2018-03-17T03:07:13.633Z,88.60
2018-03-17T03:09:42.886Z,89.30
2018-03-17T03:12:11.190Z,89.00
2018-03-17T03:14:39.531Z,89.70
2018-03-17T03:17:09.307Z,88.40
2018-03-17T03:19:39.138Z,88.70
2018-03-17T03:22:09.457Z,88.80
2018-03-17T03:24:37.898Z,88.50
2018-03-17T03:27:06.288Z,87.50
2018-03-17T03:29:34.656Z,87.00
2018-03-17T03:32:03.070Z,86.80
2018-03-17T03:34:33.151Z,85.70
2018-03-17T03:37:01.459Z,86.10
2018-03-17T03:39:30.070Z,85.50
2018-03-17T03:41:59.291Z,86.90
2018-03-17T03:44:27.795Z,86.70
2018-03-17T03:46:56.117Z,87.00
2018-03-17T03:49:25.191Z,87.50
2018-03-17T03:51:53.506Z,87.50
2018-03-17T03:54:22.587Z,87.20
2018-03-17T03:56:50.894Z,87.10
2018-03-17T03:59:19.962Z,86.60
2018-03-17T04:01:48.281Z,86.60
2018-03-17T04:04:17.363Z,86.40
2018-03-17T04:06:45.653Z,87.10
2018-03-17T04:09:14.742Z,86.00
2018-03-17T04:11:43.047Z,86.00
2018-03-17T04:14:11.404Z,85.40
2018-03-17T04:16:40.465Z,85.70
2018-03-17T04:19:08.822Z,85.70
2018-03-17T04:21:37.130Z,85.70
2018-03-17T04:24:05.461Z,86.00
2018-03-17T04:26:33.781Z,84.90
2018-03-17T04:29:02.243Z,84.50
2018-03-17T04:31:30.539Z,84.50
2018-03-17T04:33:58.829Z,84.60
2018-03-17T04:36:27.211Z,83.80
2018-03-17T04:38:55.544Z,84.40
2018-03-17T04:41:24.633Z,84.00
2018-03-17T04:43:53.696Z,83.50
2018-03-17T04:46:22.072Z,83.40
2018-03-17T04:48:50.528Z,82.80
2018-03-17T04:51:18.892Z,83.70
2018-03-17T04:53:47.327Z,82.70
2018-03-17T04:56:15.638Z,82.70
2018-03-17T04:58:45.432Z,84.40
2018-03-17T05:01:13.958Z,84.30
2018-03-17T05:03:42.272Z,82.50
2018-03-17T05:06:10.718Z,82.20
2018-03-17T05:08:39.102Z,82.40
2018-03-17T05:11:07.419Z,82.10
2018-03-17T05:13:35.718Z,82.00
2018-03-17T05:16:04.184Z,82.70
2018-03-17T05:18:32.504Z,82.70
2018-03-17T05:21:01.568Z,81.90
2018-03-17T05:23:29.893Z,81.90
2018-03-17T05:25:59.048Z,80.50
2018-03-17T05:28:27.374Z,80.40
2018-03-17T05:30:55.670Z,80.70
2018-03-17T05:33:23.969Z,80.80
2018-03-17T05:35:52.276Z,81.20
2018-03-17T05:38:20.582Z,80.60
2018-03-17T05:40:49.661Z,80.80
2018-03-17T05:43:18.044Z,80.80
2018-03-17T05:45:47.193Z,81.20
2018-03-17T05:48:15.688Z,81.40
2018-03-17T05:50:43.988Z,81.10
2018-03-17T05:53:12.287Z,80.90
2018-03-17T05:55:41.281Z,80.60
2018-03-17T05:58:09.580Z,79.70
2018-03-17T06:00:38.659Z,80.10
2018-03-17T06:03:06.960Z,80.00
2018-03-17T06:05:36.043Z,80.40
2018-03-17T06:08:04.361Z,80.40
2018-03-17T06:10:32.678Z,79.70
2018-03-17T06:13:00.990Z,79.40
2018-03-17T06:15:30.061Z,79.30
2018-03-17T06:17:58.347Z,78.60
2018-03-17T06:20:26.676Z,78.90
2018-03-17T06:22:54.972Z,78.70
2018-03-17T06:25:26.590Z,79.70
2018-03-17T06:27:55.784Z,81.20
2018-03-17T06:30:24.885Z,81.90
2018-03-17T06:32:53.951Z,82.00
2018-03-17T06:35:22.282Z,81.90
2018-03-17T06:37:50.644Z,81.40
2018-03-17T06:40:20.521Z,97.00
2018-03-17T06:42:48.828Z,96.90
2018-03-17T06:45:17.942Z,89.00
2018-03-17T06:47:47.023Z,88.60
2018-03-17T06:50:16.170Z,87.70
2018-03-17T06:52:44.486Z,87.60
2018-03-17T06:55:12.798Z,88.50
2018-03-17T06:57:41.898Z,89.20
2018-03-17T07:00:10.968Z,90.30
2018-03-17T07:02:40.785Z,87.40
2018-03-17T07:05:09.094Z,87.30
2018-03-17T07:07:38.302Z,86.10
2018-03-17T07:10:06.607Z,86.10
2018-03-17T07:12:34.923Z,85.60
2018-03-17T07:15:03.251Z,85.00
2018-03-17T07:17:31.565Z,84.00
2018-03-17T07:19:59.887Z,83.60
2018-03-17T07:22:28.974Z,81.00
2018-03-17T07:24:58.061Z,80.70
2018-03-17T07:27:26.364Z,80.60
2018-03-17T07:29:55.446Z,77.40
2018-03-17T07:32:23.774Z,77.40
2018-03-17T07:34:52.070Z,76.80
2018-03-17T07:37:20.396Z,75.20
2018-03-17T07:39:49.520Z,72.80
2018-03-17T07:42:17.830Z,72.60
2018-03-17T07:44:46.288Z,72.50
2018-03-17T07:47:14.585Z,72.20
2018-03-17T07:49:42.892Z,71.60
2018-03-17T07:52:11.193Z,70.70
2018-03-17T07:54:40.283Z,70.10
2018-03-17T07:57:08.584Z,69.40
2018-03-17T07:59:37.715Z,68.70
2018-03-17T08:02:06.034Z,68.70
2018-03-17T08:04:34.345Z,67.90
2018-03-17T08:07:03.450Z,68.00
2018-03-17T08:09:32.544Z,68.50
2018-03-17T08:12:01.640Z,71.20
2018-03-17T08:14:30.724Z,73.90
2018-03-17T08:16:59.800Z,76.20
2018-03-17T08:19:28.126Z,76.00
2018-03-17T08:21:57.889Z,75.50
2018-03-17T08:24:26.204Z,75.50
2018-03-17T08:26:55.280Z,74.30
2018-03-17T08:29:23.586Z,74.30
2018-03-17T08:31:52.674Z,73.60
2018-03-17T08:34:21.755Z,72.40
2018-03-17T08:36:50.173Z,72.40
2018-03-17T08:39:19.288Z,71.10
2018-03-17T08:41:47.614Z,71.10
2018-03-17T08:44:16.008Z,70.00
2018-03-17T08:46:45.133Z,67.00
2018-03-17T08:49:14.205Z,67.00
2018-03-17T08:51:43.268Z,65.80
2018-03-17T08:54:11.653Z,65.20
2018-03-17T08:56:40.132Z,62.30
2018-03-17T08:59:08.451Z,60.90
2018-03-17T09:01:37.654Z,58.00
2018-03-17T09:04:06.010Z,57.20
2018-03-17T09:06:34.321Z,56.50
2018-03-17T09:09:03.419Z,55.40
2018-03-17T09:11:32.555Z,55.50
2018-03-17T09:14:00.874Z,55.50
2018-03-17T09:16:29.192Z,54.40
2018-03-17T09:18:57.495Z,53.90
2018-03-17T09:21:25.797Z,52.60
2018-03-17T09:23:54.129Z,51.40
2018-03-17T09:26:23.195Z,49.90
2018-03-17T09:28:51.744Z,49.90
2018-03-17T09:31:20.340Z,50.60
2018-03-17T09:33:48.909Z,50.40
2018-03-17T09:36:18.035Z,49.70
2018-03-17T09:38:47.074Z,49.90
2018-03-17T09:41:18.010Z,49.20
2018-03-17T09:43:48.730Z,49.40
2018-03-17T09:46:19.421Z,48.80
2018-03-17T09:48:49.681Z,48.80
2018-03-17T09:51:21.455Z,48.30
2018-03-17T09:53:51.611Z,47.60
2018-03-17T09:56:20.110Z,47.50
2018-03-17T09:58:48.448Z,46.60
2018-03-17T10:01:17.534Z,46.70
2018-03-17T10:03:46.078Z,46.20
2018-03-17T10:06:14.424Z,46.10
2018-03-17T10:08:43.783Z,46.50
2018-03-17T10:11:12.155Z,46.50
2018-03-17T10:13:43.488Z,45.90
2018-03-17T10:16:11.915Z,45.80
2018-03-17T10:18:40.556Z,46.40
2018-03-17T10:21:08.850Z,46.30
2018-03-17T10:23:37.223Z,46.60
2018-03-17T10:26:05.515Z,46.60
2018-03-17T10:28:33.799Z,46.30
2018-03-17T10:31:02.191Z,45.80
2018-03-17T10:33:32.392Z,45.70
2018-03-17T10:36:01.799Z,45.70
2018-03-17T10:38:30.815Z,46.60
2018-03-17T10:40:59.339Z,46.00
2018-03-17T10:43:28.996Z,45.90
2018-03-17T10:45:57.320Z,45.90
2018-03-17T10:48:25.620Z,45.40
2018-03-17T10:50:54.562Z,44.90
2018-03-17T10:53:23.780Z,44.30
2018-03-17T10:55:52.077Z,44.30
2018-03-17T10:58:21.297Z,43.00
2018-03-17T11:00:54.490Z,42.80
2018-03-17T11:03:23.538Z,42.30
2018-03-17T11:05:51.877Z,42.40
2018-03-17T11:08:20.144Z,42.10
2018-03-17T11:10:49.336Z,41.90
2018-03-17T11:13:18.419Z,41.90
2018-03-17T11:15:46.732Z,41.80
2018-03-17T11:18:15.040Z,42.90
2018-03-17T11:20:44.292Z,41.40
2018-03-17T11:23:13.974Z,40.20
2018-03-17T11:25:42.288Z,40.20
2018-03-17T11:28:11.358Z,40.30
2018-03-17T11:30:40.085Z,40.20
2018-03-17T11:33:08.391Z,39.10
2018-03-17T11:35:36.710Z,37.80
2018-03-17T11:38:05.172Z,38.00
2018-03-17T11:40:33.474Z,38.40
2018-03-17T11:43:02.553Z,38.10
2018-03-17T11:45:30.864Z,38.20
2018-03-17T11:47:59.960Z,37.00
2018-03-17T11:50:28.268Z,36.90
2018-03-17T11:52:56.572Z,36.40
2018-03-17T11:55:24.948Z,36.40
2018-03-17T11:57:53.278Z,36.30
2018-03-17T12:00:22.348Z,36.70
2018-03-17T12:02:50.721Z,36.70
2018-03-17T12:05:19.044Z,36.00
2018-03-17T12:07:48.138Z,36.80
2018-03-17T12:10:17.219Z,35.60
2018-03-17T12:12:45.535Z,35.60
2018-03-17T12:15:14.608Z,36.00
2018-03-17T12:17:42.923Z,35.80
2018-03-17T12:20:11.314Z,35.00
2018-03-17T12:22:39.722Z,35.40
2018-03-17T12:25:08.039Z,35.20
2018-03-17T12:27:37.133Z,34.10
2018-03-17T12:30:05.458Z,34.10
2018-03-17T12:32:33.830Z,34.10
2018-03-17T12:35:02.210Z,33.60
2018-03-17T12:37:30.649Z,33.30
2018-03-17T12:39:59.037Z,32.40
2018-03-17T12:42:27.526Z,32.20
2018-03-17T12:44:55.854Z,32.80
2018-03-17T12:47:24.231Z,32.70
2018-03-17T12:49:52.554Z,33.70
2018-03-17T12:52:21.644Z,32.90
2018-03-17T12:54:50.063Z,31.40
2018-03-17T12:57:18.415Z,31.70
2018-03-17T12:59:46.766Z,32.00
2018-03-17T13:04:43.826Z,30.00
2018-03-17T13:07:12.249Z,30.50
2018-03-17T13:09:40.740Z,30.90
2018-03-17T13:12:09.066Z,30.80
2018-03-17T13:14:37.390Z,31.30
2018-03-17T13:17:05.705Z,31.20
2018-03-17T13:19:34.786Z,31.00
2018-03-17T13:22:03.347Z,31.00
2018-03-17T13:24:31.693Z,30.90
2018-03-17T13:27:17.904Z,30.10
2018-03-17T13:29:46.262Z,29.80
2018-03-17T13:32:32.188Z,30.70
2018-03-17T13:35:01.563Z,30.10
2018-03-17T13:37:38.287Z,29.80
2018-03-17T13:43:13.985Z,28.60
2018-03-17T13:45:42.329Z,28.90
2018-03-17T13:48:13.040Z,28.80
2018-03-17T13:50:41.366Z,28.80
2018-03-17T13:53:09.685Z,28.90
2018-03-17T13:55:38.719Z,29.30
2018-03-17T13:58:07.829Z,29.50
2018-03-17T14:00:36.916Z,28.80
2018-03-17T14:03:06.252Z,28.00
2018-03-17T14:05:34.606Z,28.00
2018-03-17T14:08:03.799Z,27.80
2018-03-17T14:10:32.231Z,27.70
2018-03-17T14:13:00.633Z,28.00
2018-03-17T14:15:28.947Z,27.80
2018-03-17T14:17:58.081Z,28.00
2018-03-17T14:20:26.406Z,27.60
2018-03-17T14:22:56.806Z,28.10
2018-03-17T14:25:26.717Z,28.60
2018-03-17T14:27:55.043Z,29.00
2018-03-17T14:30:23.385Z,29.50
2018-03-17T14:32:51.757Z,30.20
2018-03-17T14:35:20.067Z,30.30
2018-03-17T14:37:48.401Z,30.60
2018-03-17T14:40:16.727Z,31.30
2018-03-17T14:42:45.065Z,31.70
2018-03-17T14:45:13.660Z,32.10
2018-03-17T14:47:43.189Z,31.70
2018-03-17T14:50:11.519Z,33.00
2018-03-17T14:52:40.624Z,34.10
2018-03-17T14:55:09.712Z,34.10
2018-03-17T14:57:38.791Z,33.60
2018-03-17T15:00:07.133Z,33.50
2018-03-17T15:02:35.452Z,33.50
2018-03-17T15:05:05.307Z,34.50
2018-03-17T15:07:33.651Z,34.50
2018-03-17T15:10:01.971Z,35.50
2018-03-17T15:12:30.320Z,35.30
2018-03-17T15:14:58.644Z,35.20
2018-03-17T15:17:27.304Z,35.70
2018-03-17T15:19:55.813Z,36.40
2018-03-17T15:22:24.141Z,36.30
2018-03-17T15:24:53.970Z,37.00
2018-03-17T15:27:22.281Z,36.90
2018-03-17T15:29:50.611Z,37.30
2018-03-17T15:32:19.001Z,37.50
2018-03-17T15:34:47.409Z,37.40
2018-03-17T15:37:16.527Z,37.80
2018-03-17T15:39:44.855Z,37.80
2018-03-17T15:42:13.208Z,38.50
2018-03-17T15:44:41.525Z,38.20
2018-03-17T15:47:10.607Z,39.30
2018-03-17T15:49:38.953Z,39.30
2018-03-17T15:52:07.316Z,40.00
2018-03-17T15:54:36.415Z,40.40
2018-03-17T15:57:04.740Z,40.40
2018-03-17T15:59:33.108Z,40.40
2018-03-17T16:02:01.487Z,40.50
2018-03-17T16:04:29.818Z,40.40
2018-03-17T16:06:58.905Z,40.80
2018-03-17T16:09:28.013Z,41.10
2018-03-17T16:11:57.286Z,41.30
2018-03-17T16:14:25.623Z,41.30
2018-03-17T16:16:53.961Z,41.50
2018-03-17T16:19:22.406Z,41.60
2018-03-17T16:21:50.770Z,41.60
2018-03-17T16:24:19.978Z,41.90
2018-03-17T16:26:48.340Z,42.00
2018-03-17T16:29:17.521Z,41.80
2018-03-17T16:31:45.836Z,41.70
2018-03-17T16:34:14.279Z,41.90
2018-03-17T16:36:46.643Z,42.10
2018-03-17T16:39:15.020Z,42.40
2018-03-17T16:41:43.311Z,42.20
2018-03-17T16:44:11.751Z,42.30
2018-03-17T16:46:40.084Z,43.30
2018-03-17T16:49:09.279Z,43.20
2018-03-17T16:51:37.625Z,43.20
2018-03-17T16:54:05.947Z,43.30
2018-03-17T16:56:35.056Z,44.10
2018-03-17T16:59:04.157Z,43.60
2018-03-17T17:01:33.250Z,43.80
2018-03-17T17:04:02.340Z,43.50
2018-03-17T17:06:30.694Z,43.40
2018-03-17T17:08:59.127Z,43.30
2018-03-17T17:11:27.461Z,43.80
2018-03-17T17:13:55.778Z,43.20
2018-03-17T17:16:24.126Z,43.00
2018-03-17T17:18:52.466Z,43.00
2018-03-17T17:21:20.822Z,43.70
2018-03-17T17:23:49.925Z,43.20
2018-03-17T17:26:19.024Z,43.70
2018-03-17T17:28:48.185Z,43.60
2018-03-17T17:31:16.527Z,44.30
2018-03-17T17:33:44.862Z,44.20
2018-03-17T17:36:13.195Z,43.60
2018-03-17T17:38:41.543Z,43.50
2018-03-17T17:41:10.623Z,44.30
2018-03-17T17:43:39.721Z,44.40
2018-03-17T17:46:08.899Z,43.90
2018-03-17T17:48:37.809Z,43.90
2018-03-17T17:51:06.134Z,44.50
2018-03-17T17:53:34.478Z,44.50
2018-03-17T17:56:02.785Z,44.30
2018-03-17T17:58:31.116Z,44.50
2018-03-17T18:00:59.463Z,44.40
2018-03-17T18:03:27.799Z,44.70
2018-03-17T18:05:56.909Z,45.90
2018-03-17T18:08:26.003Z,45.60
2018-03-17T18:10:55.135Z,45.70
2018-03-17T18:13:23.472Z,45.70
2018-03-17T18:15:51.810Z,44.90
2018-03-17T18:18:20.130Z,45.60
2018-03-17T18:20:49.237Z,45.40
2018-03-17T18:23:18.336Z,46.10
2018-03-17T18:25:47.439Z,45.00
2018-03-17T18:28:15.797Z,44.90
2018-03-17T18:30:44.148Z,44.60
2018-03-17T18:33:12.520Z,45.10
2018-03-17T18:35:40.865Z,45.80
2018-03-17T18:38:09.973Z,46.20
2018-03-17T18:40:38.317Z,46.20
2018-03-17T18:43:06.675Z,46.50
2018-03-17T18:45:35.019Z,46.40
2018-03-17T18:48:03.381Z,46.20
2018-03-17T18:50:32.547Z,45.70
2018-03-17T18:53:00.904Z,45.60
2018-03-17T18:55:29.248Z,46.00
2018-03-17T18:57:58.368Z,46.70
2018-03-17T19:00:26.828Z,46.60
2018-03-17T19:02:55.932Z,46.70
2018-03-17T19:05:25.037Z,46.90
2018-03-17T19:07:54.153Z,46.10
2018-03-17T19:10:22.513Z,46.00
2018-03-17T19:12:51.633Z,46.20
2018-03-17T19:15:20.134Z,46.20
2018-03-17T19:17:48.479Z,46.80
2018-03-17T19:20:16.861Z,46.80
2018-03-17T19:22:46.045Z,46.80
2018-03-17T19:25:14.401Z,46.70
2018-03-17T19:27:42.757Z,47.20
2018-03-17T19:30:11.117Z,47.40
2018-03-17T19:32:39.543Z,47.30
2018-03-17T19:35:07.867Z,47.30
2018-03-17T19:37:37.036Z,47.60
2018-03-17T19:40:05.579Z,47.60
2018-03-17T19:42:33.951Z,47.10
2018-03-17T19:45:02.313Z,46.20
2018-03-17T19:47:31.449Z,45.20
2018-03-17T19:49:59.808Z,45.20
2018-03-17T19:52:28.153Z,45.70
2018-03-17T19:54:56.501Z,45.50
2018-03-17T19:57:24.851Z,45.90
2018-03-17T19:59:53.218Z,46.30
2018-03-17T20:02:21.600Z,46.40
2018-03-17T20:04:50.724Z,46.30
2018-03-17T20:07:19.081Z,46.20
2018-03-17T20:09:47.454Z,45.90
2018-03-17T20:12:16.606Z,45.40
2018-03-17T20:14:44.968Z,45.30
2018-03-17T20:17:13.320Z,45.80
2018-03-17T20:19:42.507Z,45.60
2018-03-17T20:22:11.633Z,45.90
2018-03-17T20:24:39.975Z,45.90
2018-03-17T20:27:08.313Z,46.70
2018-03-17T20:29:36.673Z,46.30
2018-03-17T20:32:05.067Z,44.80
2018-03-17T20:34:33.453Z,44.50
2018-03-17T20:37:01.883Z,45.20
2018-03-17T20:39:31.723Z,45.40
2018-03-17T20:42:00.858Z,46.30
2018-03-17T20:44:29.204Z,46.20
2018-03-17T20:46:58.341Z,45.40
2018-03-17T20:49:26.724Z,45.30
2018-03-17T20:51:55.081Z,45.00
2018-03-17T20:54:23.730Z,45.50
2018-03-17T20:56:52.099Z,45.20
2018-03-17T20:59:20.461Z,45.30
2018-03-17T21:01:48.827Z,44.60
2018-03-17T21:04:17.198Z,44.40
2018-03-17T21:06:46.302Z,45.50
2018-03-17T21:09:14.673Z,45.50
2018-03-17T21:11:43.074Z,45.00
2018-03-17T21:14:11.439Z,45.50
2018-03-17T21:16:39.803Z,44.70
2018-03-17T21:19:08.913Z,44.20
2018-03-17T21:21:37.333Z,44.20
2018-03-17T21:24:05.710Z,44.70
2018-03-17T21:26:34.054Z,45.30
2018-03-17T21:29:03.180Z,45.10
2018-03-17T21:31:31.588Z,45.10
2018-03-17T21:33:59.927Z,45.20
2018-03-17T21:36:28.288Z,45.50
2018-03-17T21:38:57.399Z,45.40
2018-03-17T21:41:26.503Z,45.70
2018-03-17T21:43:54.838Z,45.70
2018-03-17T21:46:23.230Z,44.80
2018-03-17T21:48:51.573Z,45.40
2018-03-17T21:51:19.917Z,45.20
2018-03-17T21:53:49.041Z,44.30
2018-03-17T21:56:17.431Z,44.20
2018-03-17T21:58:45.782Z,44.30
2018-03-17T22:01:14.693Z,44.00
2018-03-17T22:03:43.027Z,44.00
2018-03-17T22:06:12.124Z,44.50
2018-03-17T22:08:40.603Z,44.90
2018-03-17T22:11:09.738Z,45.20
2018-03-17T22:13:38.881Z,44.20
2018-03-17T22:16:08.062Z,44.10
2018-03-17T22:18:36.388Z,44.90
2018-03-17T22:21:04.716Z,44.50
2018-03-17T22:23:33.054Z,45.10
2018-03-17T22:26:02.140Z,45.10
2018-03-17T22:28:30.492Z,44.50
2018-03-17T22:30:58.802Z,44.40
2018-03-17T22:33:27.126Z,44.30
2018-03-17T22:35:55.458Z,44.20
2018-03-17T22:38:23.804Z,44.80
2018-03-17T22:40:52.132Z,44.90
2018-03-17T22:43:21.229Z,45.40
2018-03-17T22:45:49.551Z,45.40
2018-03-17T22:48:17.874Z,46.00
2018-03-17T22:50:46.189Z,45.60
2018-03-17T22:53:15.285Z,45.60
2018-03-17T22:55:44.419Z,45.50
2018-03-17T22:58:12.744Z,45.40
2018-03-17T23:00:41.095Z,45.80
2018-03-17T23:03:10.174Z,46.30
2018-03-17T23:05:38.484Z,46.30
2018-03-17T23:08:06.804Z,45.90
2018-03-17T23:10:35.882Z,46.10
2018-03-17T23:13:04.190Z,46.10
2018-03-17T23:15:33.344Z,46.70
2018-03-17T23:18:01.672Z,46.80
2018-03-17T23:20:30.767Z,47.70
2018-03-17T23:22:59.854Z,46.70
2018-03-17T23:25:28.924Z,46.40
2018-03-17T23:27:57.286Z,46.30
2018-03-17T23:30:25.610Z,46.50
2018-03-17T23:32:54.680Z,46.90
2018-03-17T23:35:22.996Z,46.80
2018-03-17T23:37:51.413Z,46.50
2018-03-17T23:40:19.714Z,47.40
2018-03-17T23:42:48.022Z,47.60
2018-03-17T23:45:16.368Z,47.70
2018-03-17T23:47:44.708Z,46.90
2018-03-17T23:50:13.782Z,47.60
2018-03-17T23:52:42.879Z,48.90
2018-03-17T23:55:11.196Z,48.10
2018-03-17T23:57:39.579Z,47.60
